Time;durP1;ratioP1;P1;durP2;ratioP2;P2;SDS_P1;SDS_P2;PMS_P1;PMS_P2;Temp;Humidity;BMP_temperature;BMP_pressure;BME280_temperature;BME280_humidity;BME280_pressure;Samples;Min_cycle;Max_cycle;Signal;HPM_P1;HPM_P2
2022/03/18 00:00:21;;;;;;;16.00;10.77;;;;;;;2.56;100.00;101402.06;5070264;28;20287;-67
2022/03/18 00:02:50;;;;;;;8.77;7.97;;;;;;;2.57;100.00;101398.72;5070617;28;20200;-67
2022/03/18 00:05:18;;;;;;;12.10;10.77;;;;;;;2.50;100.00;101397.66;5053565;28;20197;-67
2022/03/18 00:07:46;;;;;;;9.40;8.47;;;;;;;2.57;100.00;101406.31;5052091;28;20661;-67
2022/03/18 00:10:13;;;;;;;9.47;8.63;;;;;;;2.54;100.00;101401.16;5053300;28;20596;-67
2022/03/18 00:12:40;;;;;;;16.53;11.20;;;;;;;2.49;100.00;101410.25;5070343;28;20660;-68
2022/03/18 00:15:09;;;;;;;22.67;14.83;;;;;;;2.39;100.00;101406.53;5069500;28;20196;-67
2022/03/18 00:17:36;;;;;;;13.37;11.93;;;;;;;2.39;100.00;101410.75;5063850;28;20242;-67
2022/03/18 00:20:07;;;;;;;7.57;7.13;;;;;;;2.44;100.00;101405.03;5063557;28;20665;-68
2022/03/18 00:22:34;;;;;;;8.93;8.07;;;;;;;2.30;100.00;101401.16;5056830;28;20279;-68
2022/03/18 00:25:01;;;;;;;10.33;7.67;;;;;;;2.24;100.00;101390.81;5070102;28;20463;-67
2022/03/18 00:27:28;;;;;;;9.97;8.17;;;;;;;2.23;100.00;101403.44;5070159;28;20227;-67
2022/03/18 00:29:56;;;;;;;7.73;7.13;;;;;;;2.24;100.00;101405.16;5058462;28;20692;-67
2022/03/18 00:32:23;;;;;;;8.00;7.40;;;;;;;2.25;100.00;101405.22;5063313;28;20210;-67
2022/03/18 00:34:51;;;;;;;8.03;7.40;;;;;;;2.21;100.00;101405.91;5070247;28;20747;-67
2022/03/18 00:37:19;;;;;;;8.40;7.50;;;;;;;2.26;100.00;101406.09;5069486;28;20278;-67
2022/03/18 00:39:46;;;;;;;8.37;7.77;;;;;;;2.18;100.00;101392.28;5064721;28;20584;-67
2022/03/18 00:42:13;;;;;;;12.30;8.50;;;;;;;2.34;100.00;101402.13;5064414;28;20291;-68
2022/03/18 00:44:40;;;;;;;9.57;8.73;;;;;;;2.22;100.00;101392.47;5059219;28;20302;-67
2022/03/18 00:52:03;;;;;;;9.27;8.40;;;;;;;2.41;100.00;101409.13;5058682;28;20204;-67
2022/03/18 00:52:38;;;;;;;16.43;10.87;;;;;;;2.44;100.00;101410.09;5036474;28;20199;-67
2022/03/18 00:55:06;;;;;;;16.33;10.23;;;;;;;2.28;100.00;101412.03;5062018;28;20202;-66
2022/03/18 00:57:33;;;;;;;11.03;9.73;;;;;;;2.32;100.00;101408.81;5067871;28;20307;-67
2022/03/18 01:00:00;;;;;;;10.27;9.10;;;;;;;2.29;100.00;101409.59;5067820;28;20598;-67
2022/03/18 01:02:27;;;;;;;16.77;10.67;;;;;;;2.35;100.00;101414.00;5064347;28;20200;-67
2022/03/18 01:04:53;;;;;;;14.50;10.03;;;;;;;2.31;100.00;101413.00;5067872;28;20192;-66
2022/03/18 01:07:20;;;;;;;9.40;8.50;;;;;;;2.32;100.00;101429.06;5059220;28;20648;-67
2022/03/18 01:09:48;;;;;;;9.80;8.90;;;;;;;2.38;100.00;101436.88;5062041;28;20562;-67
2022/03/18 01:12:15;;;;;;;11.67;8.13;;;;;;;2.32;100.00;101424.00;5058690;28;20204;-66
2022/03/18 01:14:42;;;;;;;8.17;7.50;;;;;;;2.33;100.00;101421.50;5056203;28;20199;-67
2022/03/18 01:17:09;;;;;;;8.03;7.37;;;;;;;2.36;100.00;101430.91;5062846;28;20660;-66
2022/03/18 01:19:36;;;;;;;7.60;6.87;;;;;;;2.29;100.00;101436.56;5066610;28;20280;-68
2022/03/18 01:22:03;;;;;;;7.33;6.77;;;;;;;2.20;100.00;101438.75;5066201;28;20583;-68
2022/03/18 01:24:30;;;;;;;6.83;6.33;;;;;;;2.27;100.00;101440.69;5069560;28;20200;-67
2022/03/18 01:26:59;;;;;;;7.53;6.87;;;;;;;2.37;100.00;101443.59;5069637;28;20192;-68
2022/03/18 01:29:26;;;;;;;10.60;9.63;;;;;;;2.40;100.00;101442.84;5070215;28;20317;-67
2022/03/18 01:31:52;;;;;;;13.03;9.33;;;;;;;2.49;100.00;101453.28;5054915;28;20291;-67
2022/03/18 01:34:19;;;;;;;8.33;7.53;;;;;;;2.58;100.00;101448.56;5055139;28;20204;-67
2022/03/18 01:36:46;;;;;;;9.87;7.43;;;;;;;2.63;100.00;101447.03;5060749;28;20654;-67
2022/03/18 01:39:14;;;;;;;7.40;6.57;;;;;;;2.68;100.00;101455.66;5072915;28;20288;-67
2022/03/18 01:41:41;;;;;;;6.60;6.10;;;;;;;2.66;100.00;101437.00;5073502;28;20269;-67
2022/03/18 01:44:12;;;;;;;6.00;5.60;;;;;;;2.79;100.00;101459.41;5065176;28;20293;-67
2022/03/18 01:46:40;;;;;;;6.67;6.00;;;;;;;2.81;100.00;101457.78;5068924;28;20223;-67
2022/03/18 01:49:08;;;;;;;8.87;5.73;;;;;;;2.79;100.00;101438.28;5071912;28;20314;-67
2022/03/18 01:51:35;;;;;;;6.53;6.03;;;;;;;2.83;100.00;101448.59;5061663;28;20254;-67
2022/03/18 01:56:47;;;;;;;13.30;7.80;;;;;;;2.96;100.00;101470.97;5054366;28;20596;-67
2022/03/18 01:59:16;;;;;;;18.10;9.93;;;;;;;3.02;100.00;101472.84;5069945;28;20192;-67
2022/03/18 02:01:43;;;;;;;22.70;10.40;;;;;;;2.93;100.00;101463.28;5073078;28;20204;-67
2022/03/18 02:04:10;;;;;;;14.73;9.50;;;;;;;3.01;100.00;101482.13;5065026;28;20215;-66
2022/03/18 02:06:37;;;;;;;8.10;7.13;;;;;;;3.03;100.00;101484.72;5072803;28;20219;-67
2022/03/18 02:09:04;;;;;;;7.90;7.20;;;;;;;3.10;100.00;101492.56;5072491;28;20215;-67
2022/03/18 02:11:31;;;;;;;6.73;6.20;;;;;;;3.11;100.00;101489.22;5065366;28;20227;-68
2022/03/18 02:13:59;;;;;;;7.17;5.47;;;;;;;3.18;100.00;101481.00;5064938;28;20707;-67
2022/03/18 02:16:27;;;;;;;7.13;6.33;;;;;;;3.07;100.00;101467.13;5054779;28;20213;-67
2022/03/18 02:18:54;;;;;;;7.37;6.60;;;;;;;3.00;100.00;101479.56;5059591;28;20202;-67
2022/03/18 02:21:21;;;;;;;9.67;8.70;;;;;;;2.92;100.00;101466.63;5071232;28;20628;-67
2022/03/18 02:23:50;;;;;;;7.93;7.23;;;;;;;2.80;100.00;101471.28;5072399;28;20196;-67
2022/03/18 02:26:17;;;;;;;6.97;6.37;;;;;;;2.84;100.00;101478.19;5072200;28;20653;-66
2022/03/18 02:28:44;;;;;;;5.13;4.80;;;;;;;2.87;100.00;101490.94;5072776;28;20284;-67
2022/03/18 02:31:11;;;;;;;5.20;4.80;;;;;;;2.85;100.00;101484.94;5072201;28;20223;-67
2022/03/18 02:33:38;;;;;;;5.87;4.63;;;;;;;2.86;100.00;101495.94;5072834;28;20283;-67
2022/03/18 02:36:05;;;;;;;4.47;4.27;;;;;;;2.77;100.00;101501.56;5072114;28;20599;-67
2022/03/18 02:38:32;;;;;;;5.53;5.07;;;;;;;2.79;100.00;101504.13;5054404;28;20669;-67
2022/03/18 02:41:00;;;;;;;8.23;5.87;;;;;;;2.78;100.00;101493.13;5065663;28;20630;-67
2022/03/18 02:43:27;;;;;;;7.17;5.73;;;;;;;2.88;100.00;101499.38;5067432;28;20295;-67
2022/03/18 02:45:54;;;;;;;5.70;5.20;;;;;;;2.87;100.00;101508.69;5065470;28;20591;-67
2022/03/18 02:48:21;;;;;;;5.83;5.43;;;;;;;2.86;100.00;101504.41;5071433;28;20624;-67
2022/03/18 02:50:48;;;;;;;5.47;5.00;;;;;;;2.91;100.00;101505.41;5061811;28;20208;-66
2022/03/18 02:53:15;;;;;;;5.27;4.73;;;;;;;2.74;100.00;101483.72;5065165;28;20649;-67
2022/03/18 02:55:42;;;;;;;6.53;6.00;;;;;;;2.83;100.00;101504.31;5068119;28;20300;-66
2022/03/18 02:58:10;;;;;;;5.90;5.37;;;;;;;2.78;100.00;101498.19;5060117;28;20319;-67
2022/03/18 03:00:37;;;;;;;6.13;4.87;;;;;;;2.77;100.00;101509.16;5054728;28;20288;-67
2022/03/18 03:03:04;;;;;;;6.90;5.30;;;;;;;2.68;100.00;101493.66;5054103;28;20196;-66
2022/03/18 03:08:15;;;;;;;6.93;6.23;;;;;;;2.75;100.00;101523.44;5071563;28;20741;-67
2022/03/18 03:10:43;;;;;;;8.20;6.57;;;;;;;2.76;100.00;101520.09;5071824;28;20216;-67
2022/03/18 03:13:11;;;;;;;7.17;6.43;;;;;;;2.75;100.00;101523.44;5071435;28;20631;-67
2022/03/18 03:15:39;;;;;;;6.90;6.40;;;;;;;2.67;100.00;101519.78;5069959;28;20196;-67
2022/03/18 03:18:06;;;;;;;6.90;6.30;;;;;;;2.63;100.00;101525.53;5069473;28;20254;-67
2022/03/18 03:20:33;;;;;;;6.97;5.63;;;;;;;2.60;100.00;101527.97;5059425;28;20296;-66
2022/03/18 03:23:01;;;;;;;6.20;5.70;;;;;;;2.59;100.00;101526.22;5053781;28;20287;-67
2022/03/18 03:25:28;;;;;;;6.20;5.87;;;;;;;2.57;100.00;101528.72;5061653;28;20196;-67
2022/03/18 03:27:55;;;;;;;6.23;5.83;;;;;;;2.47;100.00;101518.19;5069934;28;20708;-67
2022/03/18 03:30:25;;;;;;;5.70;5.37;;;;;;;2.41;100.00;101510.38;5070223;28;20234;-67
2022/03/18 03:32:51;;;;;;;7.23;4.43;;;;;;;2.48;100.00;101517.41;5065458;28;20204;-67
2022/03/18 03:35:19;;;;;;;6.20;5.70;;;;;;;2.57;100.00;101533.78;5064969;28;20188;-67
2022/03/18 03:37:46;;;;;;;5.80;5.30;;;;;;;2.55;100.00;101537.06;5061592;28;20292;-67
2022/03/18 03:40:13;;;;;;;6.77;6.17;;;;;;;2.48;100.00;101515.72;5064121;28;20204;-67
2022/03/18 03:42:41;;;;;;;5.87;5.23;;;;;;;2.58;100.00;101534.66;5067186;28;20200;-67
2022/03/18 03:45:10;;;;;;;5.67;5.27;;;;;;;2.52;100.00;101519.25;5068417;28;20739;-66
2022/03/18 03:47:40;;;;;;;6.13;5.63;;;;;;;2.65;100.00;101541.63;5067532;28;20200;-67
2022/03/18 03:50:08;;;;;;;8.07;5.10;;;;;;;2.70;100.00;101555.34;5069594;28;20220;-66
2022/03/18 03:52:35;;;;;;;5.37;5.07;;;;;;;2.72;100.00;101558.78;5069120;28;20279;-67
2022/03/18 03:55:02;;;;;;;7.10;6.43;;;;;;;2.74;100.00;101557.19;5068975;28;20199;-67
2022/03/18 03:57:29;;;;;;;7.37;6.70;;;;;;;2.73;100.00;101560.50;5070779;28;20306;-67
2022/03/18 03:59:56;;;;;;;9.93;6.97;;;;;;;2.72;100.00;101561.31;5070837;28;20203;-67
2022/03/18 04:02:23;;;;;;;6.13;5.73;;;;;;;2.68;100.00;101562.03;5068082;28;20200;-67
2022/03/18 04:04:52;;;;;;;10.00;5.83;;;;;;;2.63;100.00;101558.44;5051999;28;20672;-67
2022/03/18 04:07:19;;;;;;;9.47;6.73;;;;;;;2.64;100.00;101556.00;5052270;28;20200;-67
2022/03/18 04:09:49;;;;;;;7.53;6.87;;;;;;;2.62;100.00;101561.78;5057734;28;20224;-68
2022/03/18 04:12:15;;;;;;;6.90;6.30;;;;;;;2.63;100.00;101568.59;5069963;28;20243;-67
2022/03/18 04:14:42;;;;;;;6.97;6.37;;;;;;;2.54;100.00;101559.00;5070327;28;20207;-67
2022/03/18 04:17:09;;;;;;;8.83;8.13;;;;;;;2.63;100.00;101563.50;5065954;28;20310;-67
2022/03/18 04:19:36;;;;;;;19.10;11.10;;;;;;;2.63;100.00;101560.97;5058656;28;20208;-68
2022/03/18 04:22:05;;;;;;;14.93;9.60;;;;;;;2.62;100.00;101564.31;5067014;28;20200;-67
2022/03/18 04:24:32;;;;;;;23.23;11.50;;;;;;;2.57;100.00;101575.97;5059023;28;20668;-67
2022/03/18 04:26:59;;;;;;;17.17;9.13;;;;;;;2.57;100.00;101581.03;5051672;28;20646;-67
2022/03/18 04:29:26;;;;;;;11.63;9.83;;;;;;;2.54;100.00;101574.19;5051818;28;20205;-67
2022/03/18 04:31:53;;;;;;;24.37;12.77;;;;;;;2.53;100.00;101576.66;5065693;28;20644;-67
2022/03/18 04:34:20;;;;;;;30.33;14.87;;;;;;;2.53;100.00;101582.56;5069101;28;20668;-68
2022/03/18 04:36:47;;;;;;;25.27;16.50;;;;;;;2.55;100.00;101582.66;5056659;28;20226;-67
2022/03/18 04:39:15;;;;;;;26.17;17.37;;;;;;;2.57;100.00;101583.56;5062359;28;20319;-67
2022/03/18 04:41:42;;;;;;;27.00;19.67;;;;;;;2.59;100.00;101587.00;5068351;28;20791;-66
2022/03/18 04:44:09;;;;;;;35.23;20.87;;;;;;;2.57;100.00;101579.34;5069540;28;20261;-66
2022/03/18 04:46:36;;;;;;;33.40;19.60;;;;;;;2.60;100.00;101588.72;5070160;28;20204;-67
2022/03/18 04:49:03;;;;;;;26.23;19.00;;;;;;;2.61;100.00;101591.31;5069538;28;20207;-66
2022/03/18 04:51:30;;;;;;;25.50;17.53;;;;;;;2.63;100.00;101604.03;5064711;28;20692;-66
2022/03/18 04:53:58;;;;;;;29.17;16.03;;;;;;;2.64;100.00;101598.16;5062348;28;20631;-66
2022/03/18 04:59:10;;;;;;;53.17;26.37;;;;;;;2.64;100.00;101605.75;5059481;28;20211;-66
2022/03/18 05:01:37;;;;;;;68.47;27.50;;;;;;;2.64;100.00;101605.75;5063474;28;20196;-66
2022/03/18 05:04:05;;;;;;;63.63;28.50;;;;;;;2.62;100.00;101618.34;5060243;28;20653;-66
2022/03/18 05:06:33;;;;;;;44.27;23.33;;;;;;;2.64;100.00;101615.91;5064179;28;20211;-66
2022/03/18 05:09:00;;;;;;;31.20;19.63;;;;;;;2.60;100.00;101619.09;5056149;28;20258;-66
2022/03/18 05:11:30;;;;;;;24.07;15.93;;;;;;;2.47;100.00;101596.66;5056725;28;20216;-66
2022/03/18 05:13:57;;;;;;;19.90;12.00;;;;;;;2.63;100.00;101624.28;5065784;28;20285;-67
2022/03/18 05:16:25;;;;;;;18.77;11.90;;;;;;;2.69;100.00;101629.56;5069541;28;20231;-66
2022/03/18 05:18:52;;;;;;;23.63;13.60;;;;;;;2.60;100.00;101619.97;5064059;28;20647;-66
2022/03/18 05:21:19;;;;;;;12.70;9.33;;;;;;;2.69;100.00;101624.50;5067716;28;20196;-67
2022/03/18 05:23:46;;;;;;;6.83;6.23;;;;;;;2.75;100.00;101629.78;5063359;28;20590;-66
2022/03/18 05:26:13;;;;;;;8.47;7.23;;;;;;;2.81;100.00;101637.63;5067958;28;20212;-67
2022/03/18 05:28:42;;;;;;;6.97;6.20;;;;;;;2.91;100.00;101637.16;5051112;28;20200;-66
2022/03/18 05:31:09;;;;;;;7.03;6.43;;;;;;;3.07;100.00;101633.53;5054907;28;20218;-66
2022/03/18 05:33:36;;;;;;;7.87;7.23;;;;;;;3.22;100.00;101643.31;5062322;28;20676;-67
2022/03/18 05:36:03;;;;;;;7.37;6.73;;;;;;;3.36;100.00;101647.22;5066762;28;20204;-66
2022/03/18 05:38:30;;;;;;;7.00;6.53;;;;;;;3.50;100.00;101651.06;5063516;28;20204;-66
2022/03/18 05:40:57;;;;;;;8.00;7.40;;;;;;;3.64;100.00;101660.88;5069583;28;20287;-67
2022/03/18 05:43:24;;;;;;;8.07;7.30;;;;;;;3.70;100.00;101668.69;5062206;28;20334;-66
2022/03/18 05:45:52;;;;;;;8.30;7.50;;;;;;;3.84;100.00;101661.56;5069444;28;20227;-66
2022/03/18 05:48:19;;;;;;;7.03;6.63;;;;;;;3.94;99.51;101661.00;5066658;28;20215;-66
2022/03/18 05:50:46;;;;;;;8.50;7.70;;;;;;;4.09;97.75;101666.63;5066305;28;20220;-65
2022/03/18 05:53:13;;;;;;;9.17;8.37;;;;;;;4.19;96.03;101673.72;5055039;28;20729;-67
2022/03/18 05:58:25;;;;;;;10.63;6.87;;;;;;;4.23;91.45;101685.66;5067135;28;20599;-67
2022/03/18 06:00:54;;;;;;;8.77;7.87;;;;;;;4.24;90.77;101681.44;5061759;28;20744;-66
2022/03/18 06:03:21;;;;;;;13.67;7.43;;;;;;;4.42;92.10;101686.25;5062628;28;20681;-67
2022/03/18 06:05:48;;;;;;;9.07;8.13;;;;;;;4.59;92.28;101673.25;5062724;28;20207;-67
2022/03/18 06:13:46;;;;;;;12.50;9.50;;;;;;;4.96;85.52;101692.13;5033050;28;20703;-67
2022/03/18 06:16:14;;;;;;;8.37;7.57;;;;;;;5.04;84.70;101696.59;5060985;28;20247;-67
2022/03/18 06:18:41;;;;;;;9.93;7.60;;;;;;;5.17;84.92;101698.69;5068561;28;20204;-67
2022/03/18 06:21:08;;;;;;;8.27;7.47;;;;;;;5.32;82.67;101697.41;5068932;28;20670;-67
2022/03/18 06:23:35;;;;;;;7.43;6.57;;;;;;;5.37;81.24;101696.69;5063656;28;20200;-67
2022/03/18 06:26:03;;;;;;;7.40;6.87;;;;;;;5.51;81.30;101704.72;5066047;28;20196;-68
2022/03/18 06:28:31;;;;;;;6.73;6.20;;;;;;;5.56;81.50;101705.69;5063834;28;20639;-66
2022/03/18 06:30:58;;;;;;;6.67;6.17;;;;;;;5.38;79.94;101700.09;5064605;28;20634;-67
2022/03/18 06:33:27;;;;;;;6.97;6.27;;;;;;;5.45;82.42;101690.16;5062596;28;20687;-68
2022/03/18 06:35:54;;;;;;;6.17;5.73;;;;;;;5.46;81.66;101711.38;5068233;28;20200;-67
2022/03/18 06:38:21;;;;;;;7.57;6.73;;;;;;;5.36;82.24;101714.47;5063273;28;20208;-67
2022/03/18 06:40:48;;;;;;;6.17;5.57;;;;;;;5.55;83.37;101716.69;5060419;28;20690;-67
2022/03/18 06:43:15;;;;;;;9.83;6.33;;;;;;;5.60;81.56;101716.00;5059155;28;20590;-69
2022/03/18 06:45:42;;;;;;;6.10;5.43;;;;;;;5.61;81.03;101717.72;5064955;28;20203;-67
2022/03/18 06:48:09;;;;;;;9.20;5.97;;;;;;;5.77;79.71;101724.94;5061731;28;20274;-67
2022/03/18 06:50:37;;;;;;;6.17;5.77;;;;;;;5.71;80.64;101719.69;5061102;28;20224;-67
2022/03/18 06:53:04;;;;;;;6.63;6.10;;;;;;;5.82;81.34;101723.38;5060683;28;20208;-67
2022/03/18 06:55:31;;;;;;;6.13;5.63;;;;;;;5.96;80.32;101731.41;5060436;28;20303;-67
2022/03/18 06:57:58;;;;;;;8.17;7.33;;;;;;;5.98;79.64;101728.91;5062971;28;20228;-66
2022/03/18 07:00:25;;;;;;;8.43;7.75;;;;;;;6.23;82.51;101733.78;5058627;28;20455;-67
2022/03/18 07:02:51;;;;;;;15.07;13.47;;;;;;;6.33;81.79;101734.03;5054228;28;20699;-67
2022/03/18 07:05:18;;;;;;;10.00;8.93;;;;;;;6.48;79.42;101740.31;5054389;28;20208;-65
2022/03/18 07:07:48;;;;;;;7.87;7.20;;;;;;;6.51;76.64;101742.94;5059254;28;20200;-66
2022/03/18 07:10:15;;;;;;;9.83;6.83;;;;;;;6.65;76.74;101744.16;5066320;28;20207;-66
2022/03/18 07:12:42;;;;;;;6.80;6.20;;;;;;;6.85;76.16;101740.34;5069365;28;20216;-66
2022/03/18 07:15:09;;;;;;;6.73;6.13;;;;;;;6.96;75.72;101741.44;5053478;28;20201;-65
2022/03/18 07:20:22;;;;;;;5.83;5.53;;;;;;;6.79;69.87;101740.19;5062359;28;20206;-64
2022/03/18 07:23:01;;;;;;;5.13;4.73;;;;;;;6.78;69.72;101759.75;5061243;28;20197;-65
2022/03/18 07:25:29;;;;;;;11.53;10.53;;;;;;;6.71;69.26;101760.44;5058225;28;20212;-65
2022/03/18 07:27:56;;;;;;;5.50;5.00;;;;;;;6.83;69.11;101753.06;5055602;28;20204;-65
2022/03/18 07:30:23;;;;;;;14.50;13.33;;;;;;;7.02;67.73;101753.47;5065209;28;20274;-67
2022/03/18 07:32:51;;;;;;;8.13;4.83;;;;;;;7.07;64.57;101757.84;5059419;28;20303;-66
2022/03/18 07:35:18;;;;;;;3.90;3.60;;;;;;;6.91;64.09;101755.78;5058349;28;20200;-65
2022/03/18 07:37:47;;;;;;;4.70;4.30;;;;;;;6.84;62.95;101748.84;5062226;28;20291;-65
2022/03/18 07:40:16;;;;;;;5.00;4.67;;;;;;;7.05;62.86;101762.03;5055323;28;20204;-65
2022/03/18 07:42:44;;;;;;;5.03;4.63;;;;;;;7.27;58.97;101766.75;5060304;28;20251;-65
2022/03/18 07:45:13;;;;;;;5.93;3.77;;;;;;;7.27;57.45;101761.66;5056680;28;20589;-65
2022/03/18 07:47:40;;;;;;;7.90;4.40;;;;;;;7.42;56.93;101761.13;5057230;28;20204;-65
2022/03/18 07:50:08;;;;;;;4.97;4.30;;;;;;;7.39;57.98;101767.03;5060394;28;20295;-66
2022/03/18 07:52:35;;;;;;;4.37;3.90;;;;;;;7.58;60.62;101757.19;5065282;28;20262;-68
2022/03/18 07:55:03;;;;;;;5.80;5.33;;;;;;;7.59;57.11;101758.91;5058593;28;20683;-67
2022/03/18 07:57:31;;;;;;;6.87;4.70;;;;;;;7.48;53.34;101758.69;5057793;28;20433;-68
2022/03/18 07:59:58;;;;;;;4.60;4.30;;;;;;;7.54;54.31;101760.50;5053092;28;20212;-67
2022/03/18 08:02:24;;;;;;;4.40;3.97;;;;;;;7.55;53.80;101762.22;5056718;28;20196;-69
2022/03/18 08:04:52;;;;;;;4.90;4.57;;;;;;;7.31;55.24;101762.59;5064565;28;20299;-67
2022/03/18 08:07:20;;;;;;;5.00;4.60;;;;;;;7.30;56.89;101761.72;5060629;28;20443;-70
2022/03/18 08:09:47;;;;;;;5.63;5.03;;;;;;;7.86;57.21;101759.44;5064825;28;20520;-68
2022/03/18 08:12:15;;;;;;;4.90;4.20;;;;;;;7.98;55.73;101759.66;5063975;28;20693;-68
2022/03/18 08:14:43;;;;;;;7.50;6.90;;;;;;;8.11;52.29;101753.91;5056416;28;20204;-68
2022/03/18 08:17:10;;;;;;;6.30;5.97;;;;;;;8.24;52.88;101743.06;5066766;28;20648;-68
2022/03/18 08:19:37;;;;;;;7.27;6.67;;;;;;;8.18;53.11;101740.41;5065372;28;20295;-68
2022/03/18 08:22:04;;;;;;;6.17;5.37;;;;;;;8.28;55.04;101738.91;5063907;28;20200;-69
2022/03/18 08:24:32;;;;;;;6.53;6.10;;;;;;;7.96;52.43;101745.13;5058671;28;20211;-68
2022/03/18 08:26:59;;;;;;;17.20;10.73;;;;;;;8.16;53.33;101734.44;5060028;28;20204;-68
2022/03/18 08:29:26;;;;;;;12.63;7.40;;;;;;;8.35;52.85;101736.50;5065068;28;20774;-68
2022/03/18 08:31:54;;;;;;;4.83;4.40;;;;;;;8.63;50.29;101731.78;5065926;28;20224;-69
2022/03/18 08:34:21;;;;;;;5.03;4.73;;;;;;;8.60;51.83;101729.19;5063939;28;20209;-68
2022/03/18 08:36:48;;;;;;;13.00;10.63;;;;;;;8.73;54.40;101728.53;5062492;28;20200;-68
2022/03/18 08:39:15;;;;;;;7.83;6.90;;;;;;;8.87;52.99;101727.91;5064695;28;20291;-69
2022/03/18 08:41:42;;;;;;;5.17;4.87;;;;;;;8.78;49.83;101724.34;5063843;28;20653;-67
2022/03/18 08:44:09;;;;;;;6.80;5.77;;;;;;;8.89;51.58;101725.34;5065523;28;20195;-68
2022/03/18 08:46:36;;;;;;;8.50;6.97;;;;;;;8.85;49.11;101728.72;5059046;28;20235;-69
2022/03/18 08:49:05;;;;;;;11.17;10.10;;;;;;;8.80;49.47;101720.13;5059638;28;20204;-69
2022/03/18 08:51:31;;;;;;;8.43;7.67;;;;;;;8.62;51.27;101722.41;5056716;28;20251;-68
2022/03/18 08:53:58;;;;;;;5.83;5.17;;;;;;;8.53;50.13;101735.06;5061454;28;20585;-66
2022/03/18 08:56:25;;;;;;;5.83;5.33;;;;;;;8.61;51.73;101723.25;5062152;28;22044;-68
2022/03/18 08:58:52;;;;;;;8.60;7.80;;;;;;;8.60;51.80;101721.50;5055905;28;20212;-68
2022/03/18 09:01:19;;;;;;;5.87;5.37;;;;;;;8.53;50.49;101724.84;5064026;28;20196;-68
2022/03/18 09:03:47;;;;;;;8.20;7.73;;;;;;;8.34;51.48;101678.53;5062341;28;20800;-68
2022/03/18 09:06:15;;;;;;;6.20;5.60;;;;;;;8.51;49.76;101716.28;5062124;28;20217;-67
2022/03/18 09:08:44;;;;;;;5.13;4.73;;;;;;;8.55;52.54;101715.50;5065964;28;20208;-67
2022/03/18 09:11:12;;;;;;;4.83;4.43;;;;;;;8.93;51.55;101714.31;5066930;28;20307;-67
2022/03/18 09:13:39;;;;;;;9.40;6.07;;;;;;;9.07;52.02;101715.38;5058259;28;20200;-67
2022/03/18 09:16:06;;;;;;;5.00;4.60;;;;;;;8.55;47.87;101702.69;5059514;28;20716;-68
2022/03/18 09:18:33;;;;;;;5.23;4.83;;;;;;;8.50;50.81;101709.47;5060380;28;20295;-68
2022/03/18 09:21:00;;;;;;;5.30;4.90;;;;;;;8.66;52.11;101701.19;5054363;28;20323;-69
2022/03/18 09:23:29;;;;;;;19.73;9.23;;;;;;;8.18;49.00;101696.13;5062862;28;20305;-66
2022/03/18 09:25:56;;;;;;;8.33;7.53;;;;;;;8.02;49.19;101712.03;5064123;28;20204;-68
2022/03/18 09:28:23;;;;;;;6.13;5.77;;;;;;;8.20;49.04;101709.81;5063395;28;20686;-68
2022/03/18 09:30:51;;;;;;;5.17;4.63;;;;;;;8.20;50.74;101689.34;5066129;28;20291;-66
2022/03/18 09:33:18;;;;;;;10.90;9.90;;;;;;;8.43;49.47;101711.06;5064176;28;20235;-68
2022/03/18 09:35:45;;;;;;;6.97;6.23;;;;;;;8.66;50.64;101701.19;5061658;28;20215;-69
2022/03/18 09:38:11;;;;;;;10.10;9.20;;;;;;;8.71;50.36;101699.53;5054959;28;20207;-69
2022/03/18 09:40:41;;;;;;;6.53;5.93;;;;;;;8.88;51.44;101698.06;5053644;28;20572;-69
2022/03/18 09:43:10;;;;;;;8.57;6.27;;;;;;;9.03;51.42;101689.72;5059273;28;20212;-69
2022/03/18 09:45:39;;;;;;;7.67;7.10;;;;;;;8.85;50.18;101687.81;5067301;28;20310;-68
2022/03/18 09:48:09;;;;;;;4.93;4.63;;;;;;;8.78;50.97;101684.31;5055789;28;20201;-69
2022/03/18 09:50:36;;;;;;;5.93;5.17;;;;;;;8.83;50.17;101687.75;5067704;28;20287;-69
2022/03/18 09:53:04;;;;;;;5.93;5.33;;;;;;;9.15;53.27;101683.06;5065198;28;20227;-69
2022/03/18 09:55:34;;;;;;;5.13;4.83;;;;;;;9.15;51.81;101682.19;5059015;28;20546;-69
2022/03/18 09:58:02;;;;;;;5.13;4.70;;;;;;;8.85;54.48;101680.13;5057495;28;20247;-69
2022/03/18 10:00:30;;;;;;;4.70;4.40;;;;;;;8.69;54.17;101688.44;5061729;28;20300;-68
2022/03/18 10:03:11;;;;;;;6.73;4.97;;;;;;;8.59;52.83;101684.03;5066879;28;20202;-68
2022/03/18 10:05:49;;;;;;;5.50;5.00;;;;;;;8.56;51.61;101676.31;5063843;28;20287;-68
2022/03/18 10:08:17;;;;;;;5.53;5.23;;;;;;;8.63;54.23;101685.75;5068803;28;20200;-68
2022/03/18 10:10:46;;;;;;;5.10;4.60;;;;;;;8.75;57.92;101685.94;5061980;28;20200;-68
2022/03/18 10:13:16;;;;;;;5.10;4.80;;;;;;;8.81;55.49;101678.34;5062294;28;20692;-69
2022/03/18 10:15:44;;;;;;;7.40;7.00;;;;;;;8.98;52.72;101674.34;5059114;28;20199;-68
2022/03/18 10:18:15;;;;;;;5.77;5.37;;;;;;;9.08;54.61;101675.31;5066020;28;20204;-68
2022/03/18 10:20:43;;;;;;;4.70;4.40;;;;;;;9.31;55.72;101673.84;5066539;28;20208;-68
2022/03/18 10:23:22;;;;;;;5.47;5.07;;;;;;;9.47;51.68;101679.16;5061384;28;20197;-68
2022/03/18 10:25:54;;;;;;;4.90;4.40;;;;;;;9.15;49.28;101675.38;5067145;28;20307;-69
2022/03/18 10:28:38;;;;;;;5.30;4.90;;;;;;;8.90;49.79;101655.44;5063775;28;20239;-67
2022/03/18 10:31:16;;;;;;;4.70;4.27;;;;;;;9.26;52.20;101670.38;5059266;28;20214;-68
2022/03/18 10:37:04;;;;;;;4.67;4.30;;;;;;;8.91;53.18;101664.84;5066902;28;20204;-68
2022/03/18 10:39:24;;;;;;;5.70;5.40;;;;;;;8.91;54.28;101663.16;5061935;28;20207;-68
2022/03/18 10:41:51;;;;;;;4.77;4.47;;;;;;;8.95;53.21;101659.78;5065930;28;20282;-69
2022/03/18 10:44:20;;;;;;;6.50;5.17;;;;;;;8.91;51.16;101662.28;5058665;28;20301;-68
2022/03/18 10:46:49;;;;;;;4.47;4.07;;;;;;;8.94;47.50;101658.09;5069209;28;20591;-68
2022/03/18 10:49:17;;;;;;;4.60;4.30;;;;;;;8.97;47.58;101662.38;5068151;28;20200;-68
2022/03/18 10:51:44;;;;;;;4.57;4.37;;;;;;;9.12;48.42;101659.97;5059955;28;20707;-68
2022/03/18 10:54:11;;;;;;;4.50;4.10;;;;;;;9.14;46.25;101666.00;5068069;28;20215;-68
2022/03/18 10:56:56;;;;;;;4.50;4.20;;;;;;;8.98;46.94;101653.88;5067128;28;20583;-68
2022/03/18 10:59:27;;;;;;;4.90;4.40;;;;;;;9.12;47.87;101652.31;5061026;28;20588;-68
2022/03/18 11:01:56;;;;;;;5.57;5.27;;;;;;;9.08;48.86;101644.59;5060808;28;20203;-68
2022/03/18 11:04:25;;;;;;;5.10;4.57;;;;;;;9.31;49.84;101654.22;5062466;28;20262;-68
2022/03/18 11:12:29;;;;;;;5.35;4.85;;;;;;;9.70;49.88;101637.53;5053403;28;20501;-67
2022/03/18 11:14:58;;;;;;;5.40;5.00;;;;;;;9.94;47.44;101637.78;5052465;28;20208;-67
2022/03/18 11:17:25;;;;;;;5.23;4.80;;;;;;;9.93;44.76;101643.72;5053310;28;20228;-67
2022/03/18 11:19:53;;;;;;;4.80;4.50;;;;;;;9.42;42.27;101616.81;5057046;28;20208;-67
2022/03/18 11:22:21;;;;;;;4.97;4.67;;;;;;;9.60;45.21;101640.84;5063758;28;20661;-68
2022/03/18 11:24:49;;;;;;;5.73;4.90;;;;;;;9.80;47.17;101636.78;5052966;28;20205;-68
2022/03/18 11:27:17;;;;;;;6.77;5.80;;;;;;;9.81;48.07;101633.38;5054233;28;20205;-67
2022/03/18 11:29:45;;;;;;;4.67;4.37;;;;;;;9.44;44.63;101625.34;5063292;28;20200;-67
2022/03/18 11:32:21;;;;;;;5.43;4.93;;;;;;;9.33;45.89;101624.41;5055564;28;20232;-68
2022/03/18 11:34:51;;;;;;;5.47;5.07;;;;;;;9.39;49.33;101621.91;5058460;28;20624;-67
2022/03/18 11:37:19;;;;;;;5.23;4.50;;;;;;;9.36;49.44;101616.75;5066246;28;20265;-67
2022/03/18 11:39:47;;;;;;;5.03;4.63;;;;;;;9.16;45.80;101617.38;5065539;28;20234;-68
2022/03/18 11:42:19;;;;;;;5.27;4.90;;;;;;;9.12;48.47;101616.47;5054925;28;20771;-68
2022/03/18 11:44:52;;;;;;;4.80;4.43;;;;;;;9.36;49.24;101619.31;5060996;28;20650;-68
2022/03/18 11:47:43;;;;;;;4.73;4.43;;;;;;;9.36;47.26;101616.75;5057141;28;20219;-68
2022/03/18 11:50:49;;;;;;;8.50;5.43;;;;;;;9.42;48.62;101611.69;5065738;28;20219;-67
2022/03/18 11:53:48;;;;;;;5.30;4.93;;;;;;;9.55;47.03;101606.69;5057258;28;20216;-68
2022/03/18 11:56:15;;;;;;;5.07;4.70;;;;;;;9.55;47.94;101599.00;5061736;28;20212;-68
2022/03/18 11:58:42;;;;;;;6.00;4.53;;;;;;;9.55;48.20;101596.44;5055639;28;20579;-67
2022/03/18 12:01:40;;;;;;;4.50;4.13;;;;;;;9.32;45.50;101602.19;5063936;28;20751;-68